Time;durP1;ratioP1;P1;durP2;ratioP2;P2;SDS_P1;SDS_P2;PMS_P1;PMS_P2;Temp;Humidity;BMP_temperature;BMP_pressure;BME280_temperature;BME280_humidity;BME280_pressure;Samples;Min_cycle;Max_cycle;Signal;HPM_P1;HPM_P2
2023/08/10 00:00:12;;;;;;;5.00;4.18;;;19.00;98.60;;;;;;5072378;28;20060;-72
2023/08/10 00:02:39;;;;;;;5.72;4.28;;;19.00;98.70;;;;;;5072636;28;20013;-73
2023/08/10 00:05:05;;;;;;;6.47;4.40;;;19.00;98.70;;;;;;5072790;28;20378;-72
2023/08/10 00:07:31;;;;;;;9.57;4.00;;;18.90;98.80;;;;;;5076144;28;20044;-73
2023/08/10 00:09:57;;;;;;;6.30;4.35;;;19.00;98.90;;;;;;5075812;28;20061;-71
2023/08/10 00:12:23;;;;;;;5.63;4.30;;;18.90;98.80;;;;;;5076087;28;20020;-72
2023/08/10 00:14:49;;;;;;;7.90;5.15;;;19.00;98.70;;;;;;5075689;28;20035;-72
2023/08/10 00:17:16;;;;;;;7.00;4.93;;;18.90;98.60;;;;;;5075604;28;20087;-72
2023/08/10 00:19:42;;;;;;;6.18;5.20;;;18.90;98.70;;;;;;5075596;28;20055;-71
2023/08/10 00:22:08;;;;;;;7.03;5.40;;;18.90;98.60;;;;;;5075665;28;20048;-71
2023/08/10 00:24:33;;;;;;;7.95;5.68;;;18.90;98.60;;;;;;5075890;28;20473;-72
2023/08/10 00:26:59;;;;;;;6.20;5.05;;;18.90;98.50;;;;;;5075864;28;20464;-72
2023/08/10 00:29:24;;;;;;;6.55;5.15;;;18.80;98.60;;;;;;5074389;28;20024;-71
2023/08/10 00:31:50;;;;;;;8.02;5.55;;;18.80;98.70;;;;;;5075740;28;20013;-71
2023/08/10 00:34:16;;;;;;;5.53;4.93;;;18.80;98.60;;;;;;5072760;28;20029;-71
2023/08/10 00:36:41;;;;;;;5.68;4.90;;;18.80;98.80;;;;;;5055151;28;20032;-71
2023/08/10 00:39:07;;;;;;;6.72;4.93;;;18.80;98.70;;;;;;5055156;28;20428;-71
2023/08/10 00:41:33;;;;;;;9.27;5.40;;;18.70;98.70;;;;;;5054948;28;20075;-72
2023/08/10 00:43:59;;;;;;;6.75;4.93;;;18.70;98.60;;;;;;5055199;28;20445;-71
2023/08/10 00:46:25;;;;;;;6.45;4.90;;;18.80;98.80;;;;;;5055172;28;20112;-71
2023/08/10 00:48:51;;;;;;;7.93;4.00;;;18.70;98.80;;;;;;5054827;28;20033;-71
2023/08/10 00:51:16;;;;;;;5.82;4.22;;;18.70;98.90;;;;;;5055179;28;20485;-71
2023/08/10 00:53:42;;;;;;;5.13;3.97;;;18.70;99.10;;;;;;5055159;28;20025;-71
2023/08/10 00:56:10;;;;;;;9.05;4.10;;;18.70;99.20;;;;;;5054852;28;20036;-73
2023/08/10 00:58:36;;;;;;;8.05;3.97;;;18.60;99.40;;;;;;5055003;28;20033;-71
2023/08/10 01:01:02;;;;;;;6.25;4.10;;;18.60;99.40;;;;;;5054762;28;20473;-72
2023/08/10 01:03:28;;;;;;;5.20;4.25;;;18.60;99.50;;;;;;5054833;28;20023;-72
2023/08/10 01:06:02;;;;;;;6.05;4.13;;;18.60;99.50;;;;;;5054814;28;20104;-71
2023/08/10 01:08:44;;;;;;;5.75;4.60;;;18.60;99.50;;;;;;5055014;28;20028;-71
2023/08/10 01:11:23;;;;;;;8.10;5.17;;;18.50;99.50;;;;;;5055170;28;20025;-72
2023/08/10 01:14:03;;;;;;;6.75;4.90;;;18.50;99.50;;;;;;5054784;28;20078;-72
2023/08/10 01:16:30;;;;;;;7.70;5.35;;;18.50;99.60;;;;;;5053924;28;20033;-71
2023/08/10 01:18:58;;;;;;;6.95;4.85;;;18.50;99.60;;;;;;5053987;28;20021;-72
2023/08/10 01:21:42;;;;;;;7.28;5.35;;;18.50;99.70;;;;;;5054578;28;20094;-71
2023/08/10 01:24:23;;;;;;;7.53;5.28;;;18.50;99.80;;;;;;5053322;28;20370;-71
2023/08/10 01:26:51;;;;;;;7.63;5.43;;;18.40;99.80;;;;;;5054302;28;20476;-72
2023/08/10 01:29:17;;;;;;;6.05;4.70;;;18.40;99.70;;;;;;5054431;28;20378;-71
2023/08/10 01:31:43;;;;;;;8.07;4.97;;;18.40;99.70;;;;;;5054234;28;20462;-71
2023/08/10 01:34:08;;;;;;;6.45;4.60;;;18.40;99.80;;;;;;5054092;28;20021;-71
2023/08/10 01:36:34;;;;;;;6.43;4.78;;;18.40;99.80;;;;;;5054233;28;20497;-71
2023/08/10 01:39:00;;;;;;;5.55;4.18;;;18.40;99.80;;;;;;5054440;28;20021;-71
2023/08/10 01:41:26;;;;;;;5.28;4.47;;;18.40;99.80;;;;;;5054391;28;20530;-71
2023/08/10 01:43:51;;;;;;;5.82;4.18;;;18.40;99.80;;;;;;5054132;28;20021;-71
2023/08/10 01:46:19;;;;;;;8.15;4.50;;;18.40;99.80;;;;;;5054278;28;20066;-72
2023/08/10 01:48:50;;;;;;;6.25;4.03;;;18.40;99.90;;;;;;5053524;28;20085;-71
2023/08/10 01:51:18;;;;;;;5.80;4.10;;;18.40;99.90;;;;;;5053843;28;20025;-72
2023/08/10 01:53:46;;;;;;;5.13;4.35;;;18.40;99.90;;;;;;5052395;28;20056;-71
2023/08/10 01:56:12;;;;;;;5.35;4.22;;;18.30;99.90;;;;;;5053775;28;20478;-72
2023/08/10 01:58:37;;;;;;;4.18;3.65;;;18.30;99.80;;;;;;5053877;28;20036;-71
2023/08/10 02:01:03;;;;;;;6.57;4.32;;;18.30;99.90;;;;;;5053782;28;20107;-71
2023/08/10 02:03:28;;;;;;;5.03;4.20;;;18.30;99.90;;;;;;5053818;28;20063;-73
2023/08/10 02:05:54;;;;;;;5.82;4.22;;;18.20;99.90;;;;;;5053695;28;20375;-71
2023/08/10 02:08:20;;;;;;;5.90;4.45;;;18.30;99.90;;;;;;5053792;28;20079;-71
2023/08/10 02:10:45;;;;;;;4.70;3.80;;;18.20;99.80;;;;;;5053675;28;20466;-72
2023/08/10 02:13:11;;;;;;;5.00;3.90;;;18.20;99.90;;;;;;5053581;28;20028;-71
2023/08/10 02:15:36;;;;;;;5.93;4.30;;;18.20;99.90;;;;;;5053379;28;20036;-71
2023/08/10 02:18:02;;;;;;;4.32;3.28;;;18.20;99.90;;;;;;5053295;28;20029;-71
2023/08/10 02:20:28;;;;;;;4.38;3.10;;;18.20;99.80;;;;;;5052316;28;20432;-71
2023/08/10 02:22:54;;;;;;;6.68;3.95;;;18.20;99.80;;;;;;5053554;28;20024;-72
2023/08/10 02:25:21;;;;;;;5.45;4.18;;;18.20;99.70;;;;;;5053550;28;20092;-73
2023/08/10 02:27:48;;;;;;;7.20;3.95;;;18.20;99.80;;;;;;5052971;28;20032;-72
2023/08/10 02:30:15;;;;;;;6.10;3.88;;;18.10;99.70;;;;;;5053000;28;20025;-71
2023/08/10 02:32:40;;;;;;;5.65;3.67;;;18.20;99.50;;;;;;5053099;28;20060;-71
2023/08/10 02:35:06;;;;;;;6.47;3.60;;;18.10;99.50;;;;;;5052003;28;20061;-71
2023/08/10 02:37:32;;;;;;;5.78;3.70;;;18.10;99.50;;;;;;5053477;28;20496;-71
2023/08/10 02:39:58;;;;;;;5.43;3.67;;;18.10;99.60;;;;;;5053016;28;20036;-71
2023/08/10 02:42:24;;;;;;;7.68;3.92;;;18.10;99.60;;;;;;5053174;28;20017;-71
2023/08/10 02:44:51;;;;;;;5.93;3.53;;;18.10;99.60;;;;;;5052858;28;20020;-71
2023/08/10 02:47:17;;;;;;;9.57;4.07;;;18.10;99.50;;;;;;5053158;28;20050;-72
2023/08/10 02:49:43;;;;;;;5.93;3.70;;;18.10;99.50;;;;;;5053017;28;20036;-71
2023/08/10 02:52:08;;;;;;;6.63;3.58;;;18.10;99.50;;;;;;5053211;28;20020;-72
2023/08/10 02:54:34;;;;;;;8.43;3.63;;;18.00;99.50;;;;;;5053183;28;20025;-72
2023/08/10 02:57:01;;;;;;;5.97;4.10;;;18.00;99.40;;;;;;5053299;28;20052;-71
2023/08/10 02:59:26;;;;;;;5.15;4.00;;;18.00;99.40;;;;;;5051491;28;20067;-71
2023/08/10 03:01:52;;;;;;;8.40;4.22;;;18.00;99.50;;;;;;5053015;28;20500;-72
2023/08/10 03:04:18;;;;;;;5.82;3.67;;;18.00;99.60;;;;;;5052793;28;20035;-72
2023/08/10 03:06:43;;;;;;;5.32;3.83;;;17.90;99.50;;;;;;5053093;28;20456;-71
2023/08/10 03:09:09;;;;;;;5.65;3.60;;;17.90;99.40;;;;;;5052848;28;20021;-72
2023/08/10 03:11:34;;;;;;;4.97;3.55;;;17.90;99.40;;;;;;5053003;28;20040;-71
2023/08/10 03:14:00;;;;;;;4.95;3.28;;;17.90;99.60;;;;;;5052562;28;20029;-72
2023/08/10 03:16:26;;;;;;;4.10;3.40;;;17.90;99.60;;;;;;5052896;28;20086;-72
2023/08/10 03:18:52;;;;;;;5.82;3.60;;;17.80;99.60;;;;;;5052736;28;20021;-72
2023/08/10 03:21:18;;;;;;;6.78;4.03;;;17.90;99.60;;;;;;5052775;28;20470;-72
2023/08/10 03:23:43;;;;;;;6.88;4.22;;;17.90;99.50;;;;;;5052704;28;20104;-71
2023/08/10 03:26:09;;;;;;;6.88;4.57;;;17.90;99.90;;;;;;5052771;28;20036;-72
2023/08/10 03:28:34;;;;;;;6.32;3.90;;;17.80;99.80;;;;;;5051403;28;20112;-72
2023/08/10 03:31:00;;;;;;;6.65;4.57;;;17.80;99.70;;;;;;5052500;28;20029;-71
2023/08/10 03:33:26;;;;;;;5.82;3.92;;;17.80;99.70;;;;;;5052939;28;20074;-72
2023/08/10 03:35:52;;;;;;;6.15;4.13;;;17.80;99.90;;;;;;5052626;28;20047;-71
2023/08/10 03:38:17;;;;;;;4.22;3.25;;;17.80;99.70;;;;;;5052642;28;20445;-71
2023/08/10 03:40:43;;;;;;;4.65;3.17;;;17.70;99.80;;;;;;5053819;28;20478;-72
2023/08/10 03:43:09;;;;;;;4.38;3.28;;;17.80;99.90;;;;;;5056342;28;20021;-71
2023/08/10 03:45:34;;;;;;;3.58;3.17;;;17.80;99.90;;;;;;5056394;28;20025;-71
2023/08/10 03:48:00;;;;;;;6.32;3.03;;;17.70;99.90;;;;;;5056312;28;20093;-72
2023/08/10 03:50:26;;;;;;;5.55;3.13;;;17.70;99.90;;;;;;5056098;28;20020;-71
2023/08/10 03:52:52;;;;;;;8.07;3.30;;;17.70;99.70;;;;;;5056369;28;20422;-71
2023/08/10 03:55:19;;;;;;;4.32;2.97;;;17.70;99.90;;;;;;5056091;28;20489;-71
2023/08/10 03:57:45;;;;;;;5.20;3.72;;;17.70;99.90;;;;;;5055892;28;20040;-72
2023/08/10 04:00:13;;;;;;;4.03;2.67;;;17.70;99.90;;;;;;5055977;28;20017;-72
2023/08/10 04:02:39;;;;;;;4.72;2.90;;;17.70;99.90;;;;;;5056296;28;20040;-71
2023/08/10 04:05:06;;;;;;;10.55;3.55;;;17.70;99.90;;;;;;5056070;28;20462;-71
2023/08/10 04:07:37;;;;;;;5.25;3.42;;;17.70;99.90;;;;;;5056187;28;20048;-71
2023/08/10 04:10:09;;;;;;;6.70;3.83;;;17.70;99.90;;;;;;5055871;28;20017;-71
2023/08/10 04:12:36;;;;;;;4.65;3.42;;;17.70;99.90;;;;;;5055958;28;20481;-72
2023/08/10 04:15:03;;;;;;;6.13;3.28;;;17.60;99.90;;;;;;5055669;28;20013;-71
2023/08/10 04:17:29;;;;;;;4.65;3.00;;;17.60;99.90;;;;;;5056093;28;20178;-71
2023/08/10 04:19:56;;;;;;;3.80;3.05;;;17.60;99.90;;;;;;5055631;28;20112;-71
2023/08/10 04:22:22;;;;;;;6.93;3.80;;;17.60;99.90;;;;;;5055820;28;20021;-71
2023/08/10 04:24:47;;;;;;;4.80;3.53;;;17.60;99.90;;;;;;5055878;28;20021;-71
2023/08/10 04:27:13;;;;;;;5.57;3.97;;;17.60;99.90;;;;;;5055527;28;20516;-71
2023/08/10 04:29:43;;;;;;;5.95;3.67;;;17.60;99.90;;;;;;5055565;28;20108;-71
2023/08/10 04:32:08;;;;;;;8.07;3.47;;;17.60;99.90;;;;;;5055725;28;20094;-71
2023/08/10 04:34:34;;;;;;;9.63;3.58;;;17.60;99.90;;;;;;5055608;28;20060;-71
2023/08/10 04:37:00;;;;;;;5.10;3.22;;;17.70;99.60;;;;;;5054049;28;20041;-72
2023/08/10 04:39:27;;;;;;;5.03;3.53;;;17.70;99.50;;;;;;5054069;28;20017;-71
2023/08/10 04:41:52;;;;;;;5.78;3.35;;;17.70;99.40;;;;;;5055042;28;20028;-72
2023/08/10 04:44:18;;;;;;;4.45;3.05;;;17.70;99.20;;;;;;5055435;28;20104;-72
2023/08/10 04:46:44;;;;;;;3.75;3.28;;;17.80;99.20;;;;;;5055346;28;20024;-74
2023/08/10 04:49:09;;;;;;;4.93;3.30;;;17.80;99.30;;;;;;5053964;28;20086;-71
2023/08/10 04:51:35;;;;;;;6.97;3.65;;;17.80;99.30;;;;;;5054870;28;20075;-76
2023/08/10 04:54:01;;;;;;;6.07;3.75;;;17.70;99.20;;;;;;5055326;28;20027;-76
2023/08/10 04:56:26;;;;;;;4.43;2.90;;;17.80;99.30;;;;;;5054667;28;20120;-73
2023/08/10 04:58:52;;;;;;;7.38;3.85;;;17.70;99.20;;;;;;5055231;28;20108;-71
2023/08/10 05:01:18;;;;;;;8.75;3.25;;;17.80;99.30;;;;;;5054683;28;20025;-71
2023/08/10 05:03:43;;;;;;;4.35;3.10;;;17.80;99.30;;;;;;5055305;28;20409;-72
2023/08/10 05:06:09;;;;;;;9.00;3.50;;;17.80;99.40;;;;;;5051780;28;20092;-71
2023/08/10 05:08:35;;;;;;;4.00;3.17;;;17.80;99.50;;;;;;5054700;28;20031;-72
2023/08/10 05:11:00;;;;;;;10.13;3.38;;;17.70;99.50;;;;;;5054514;28;20033;-71
2023/08/10 05:13:26;;;;;;;4.97;2.67;;;17.80;99.40;;;;;;5054809;28;20159;-71
2023/08/10 05:15:51;;;;;;;7.05;2.90;;;17.70;99.40;;;;;;5054764;28;20036;-71
2023/08/10 05:18:22;;;;;;;4.55;3.20;;;17.70;99.40;;;;;;5054634;28;20355;-74
2023/08/10 05:20:47;;;;;;;4.63;2.58;;;17.70;99.50;;;;;;5052331;28;20117;-72
2023/08/10 05:23:13;;;;;;;8.10;2.88;;;17.80;99.60;;;;;;5066767;28;20465;-71
2023/08/10 05:25:39;;;;;;;6.22;2.75;;;17.80;99.60;;;;;;5055244;28;20031;-72
2023/08/10 05:28:05;;;;;;;4.75;3.65;;;17.70;99.70;;;;;;5051037;28;20021;-71
2023/08/10 05:30:31;;;;;;;4.07;2.75;;;17.80;99.70;;;;;;5051411;28;20474;-73
2023/08/10 05:32:56;;;;;;;7.18;2.85;;;17.70;99.80;;;;;;5066754;28;20491;-72
2023/08/10 05:35:22;;;;;;;5.65;2.45;;;17.70;99.90;;;;;;5056033;28;20032;-71
2023/08/10 05:37:48;;;;;;;4.60;2.78;;;17.80;99.90;;;;;;5062916;28;20043;-71
2023/08/10 05:40:13;;;;;;;4.80;2.42;;;17.70;99.90;;;;;;5055431;28;20470;-73
2023/08/10 05:42:40;;;;;;;3.08;2.13;;;17.70;99.90;;;;;;5072522;28;20473;-73
2023/08/10 05:45:07;;;;;;;3.60;2.15;;;17.70;99.90;;;;;;5053521;28;20017;-72
2023/08/10 05:47:33;;;;;;;4.47;2.20;;;17.80;99.90;;;;;;5053308;28;20021;-74
2023/08/10 05:49:59;;;;;;;4.78;2.42;;;17.80;99.90;;;;;;5053430;28;20033;-71
2023/08/10 05:52:25;;;;;;;6.03;2.30;;;17.70;99.90;;;;;;5053480;28;20025;-71
2023/08/10 05:54:50;;;;;;;3.72;2.33;;;17.80;99.90;;;;;;5051503;28;20032;-71
2023/08/10 05:57:16;;;;;;;7.97;2.95;;;17.70;99.90;;;;;;5052835;28;20045;-72
2023/08/10 05:59:41;;;;;;;5.55;2.22;;;17.80;99.90;;;;;;5053416;28;20021;-71
2023/08/10 06:02:07;;;;;;;2.92;2.38;;;17.70;99.90;;;;;;5052848;28;20466;-71
2023/08/10 06:04:34;;;;;;;8.73;3.10;;;17.70;99.90;;;;;;5047873;28;20032;-69
2023/08/10 06:06:59;;;;;;;5.32;3.38;;;17.60;99.90;;;;;;5051012;28;20021;-72
2023/08/10 06:09:25;;;;;;;6.65;3.50;;;17.60;99.90;;;;;;5047756;28;20371;-70
2023/08/10 06:11:51;;;;;;;5.97;2.80;;;17.70;99.90;;;;;;5051834;28;20389;-71
2023/08/10 06:14:17;;;;;;;4.03;3.03;;;17.90;99.90;;;;;;5046827;28;20044;-71
2023/08/10 06:16:43;;;;;;;4.40;2.72;;;17.90;99.90;;;;;;5051489;28;20385;-72
2023/08/10 06:19:09;;;;;;;5.35;2.33;;;18.00;99.90;;;;;;5051056;28;20032;-71
2023/08/10 06:21:34;;;;;;;4.88;2.50;;;18.10;99.90;;;;;;5047863;28;20112;-71
2023/08/10 06:24:00;;;;;;;4.13;2.40;;;18.10;99.90;;;;;;5049645;28;20106;-69
2023/08/10 06:26:26;;;;;;;6.18;2.28;;;18.20;99.90;;;;;;5051755;28;20405;-69
2023/08/10 06:28:52;;;;;;;2.67;1.50;;;18.20;99.90;;;;;;5052893;28;20021;-70
2023/08/10 06:31:17;;;;;;;3.95;2.10;;;18.30;99.90;;;;;;5052719;28;20032;-70
2023/08/10 06:33:43;;;;;;;7.03;2.17;;;18.30;99.90;;;;;;5049754;28;20028;-70
2023/08/10 06:36:10;;;;;;;4.30;1.38;;;18.40;99.90;;;;;;5047902;28;20032;-70
2023/08/10 06:38:36;;;;;;;4.50;1.42;;;18.40;99.80;;;;;;5049483;28;20033;-70
2023/08/10 06:41:02;;;;;;;5.55;1.30;;;18.50;99.40;;;;;;5050340;28;20426;-73
2023/08/10 06:43:29;;;;;;;3.10;0.98;;;18.60;99.30;;;;;;5051659;28;20029;-67
2023/08/10 06:45:54;;;;;;;11.32;1.95;;;18.60;99.20;;;;;;5050320;28;20027;-73
2023/08/10 06:48:20;;;;;;;6.07;1.83;;;18.60;99.90;;;;;;5046661;28;20033;-70
2023/08/10 06:50:46;;;;;;;9.23;2.05;;;18.60;99.90;;;;;;5050145;28;20021;-69
2023/08/10 06:53:11;;;;;;;9.48;1.27;;;18.60;99.90;;;;;;5044957;28;20029;-71
2023/08/10 06:55:38;;;;;;;12.63;1.67;;;18.70;99.90;;;;;;5052879;28;20490;-70
2023/08/10 06:58:04;;;;;;;10.15;1.70;;;18.70;99.80;;;;;;5049914;28;20041;-71
2023/08/10 07:00:30;;;;;;;9.73;1.77;;;18.70;99.30;;;;;;5050867;28;20086;-72
2023/08/10 07:02:56;;;;;;;14.48;2.15;;;18.70;99.40;;;;;;5045988;28;20021;-69
2023/08/10 07:05:23;;;;;;;11.93;2.58;;;18.80;99.60;;;;;;5049593;28;20359;-68
2023/08/10 07:07:49;;;;;;;6.50;1.80;;;18.80;99.50;;;;;;5052113;28;20522;-71
2023/08/10 07:10:15;;;;;;;12.00;1.83;;;18.80;99.70;;;;;;5051455;28;20021;-71
2023/08/10 07:12:42;;;;;;;9.95;1.90;;;18.90;99.90;;;;;;5051475;28;20466;-74
2023/08/10 07:15:08;;;;;;;8.68;1.65;;;18.90;99.90;;;;;;5053482;28;20029;-71
2023/08/10 07:17:35;;;;;;;5.88;1.58;;;18.90;99.60;;;;;;5056633;28;20029;-71
2023/08/10 07:20:03;;;;;;;7.93;1.75;;;19.00;99.90;;;;;;5056776;28;20029;-72
2023/08/10 07:22:29;;;;;;;13.82;2.00;;;19.00;99.90;;;;;;5056972;28;20029;-70
2023/08/10 07:24:54;;;;;;;10.85;1.70;;;19.00;99.90;;;;;;5056768;28;20048;-73
2023/08/10 07:27:20;;;;;;;7.70;1.52;;;19.00;99.90;;;;;;5056998;28;20055;-70
2023/08/10 07:29:46;;;;;;;3.50;1.13;;;19.10;99.90;;;;;;5054777;28;20029;-73
2023/08/10 07:32:14;;;;;;;5.13;1.65;;;19.10;99.60;;;;;;5036690;28;20021;-71
2023/08/10 07:34:39;;;;;;;3.95;1.17;;;19.10;99.90;;;;;;5035643;28;20025;-71
2023/08/10 07:37:05;;;;;;;9.68;1.70;;;19.10;99.20;;;;;;5035822;28;20037;-72
2023/08/10 07:39:30;;;;;;;5.93;1.40;;;19.20;99.10;;;;;;5036540;28;20071;-72
2023/08/10 07:41:56;;;;;;;5.82;1.27;;;19.20;98.80;;;;;;5035380;28;20021;-71
2023/08/10 07:44:22;;;;;;;9.00;1.48;;;19.20;98.80;;;;;;5034967;28;20080;-70
2023/08/10 07:46:48;;;;;;;4.65;1.15;;;19.30;98.80;;;;;;5035550;28;20021;-73
2023/08/10 07:49:17;;;;;;;3.92;1.10;;;19.30;98.40;;;;;;5042690;28;20025;-72
2023/08/10 07:51:47;;;;;;;13.70;1.52;;;19.40;98.20;;;;;;5063502;28;20021;-72
2023/08/10 07:54:13;;;;;;;17.17;1.67;;;19.40;98.10;;;;;;5060876;28;20123;-73
2023/08/10 07:56:40;;;;;;;6.53;1.92;;;19.40;98.20;;;;;;5070743;28;20480;-72
2023/08/10 07:59:06;;;;;;;12.18;1.42;;;19.50;98.10;;;;;;5058272;28;20021;-72
2023/08/10 08:01:32;;;;;;;7.43;1.08;;;19.50;98.00;;;;;;5050482;28;20029;-72
2023/08/10 08:03:57;;;;;;;8.23;1.23;;;19.60;97.10;;;;;;5051693;28;20095;-71
2023/08/10 08:06:23;;;;;;;9.88;1.30;;;19.60;96.90;;;;;;5053836;28;20033;-73
2023/08/10 08:08:49;;;;;;;9.15;1.30;;;19.70;96.80;;;;;;5056377;28;20036;-71
2023/08/10 08:11:17;;;;;;;11.88;1.42;;;19.70;96.70;;;;;;5075100;28;20031;-71
2023/08/10 08:13:43;;;;;;;2.60;0.95;;;19.80;96.50;;;;;;5065511;28;20056;-72
2023/08/10 08:16:10;;;;;;;3.85;0.98;;;19.80;96.40;;;;;;5053798;28;20064;-72
2023/08/10 08:18:56;;;;;;;2.97;0.90;;;19.90;95.80;;;;;;5056796;28;20550;-73
2023/08/10 08:21:24;;;;;;;3.83;0.77;;;19.90;95.60;;;;;;5071200;28;20029;-72
2023/08/10 08:23:51;;;;;;;4.10;1.02;;;20.00;95.10;;;;;;5070440;28;20054;-71
2023/08/10 08:26:18;;;;;;;8.45;0.85;;;20.00;94.70;;;;;;5063804;28;20040;-72
2023/08/10 08:28:44;;;;;;;5.55;1.08;;;20.10;94.80;;;;;;5055524;28;20470;-73
2023/08/10 08:31:10;;;;;;;10.50;1.88;;;20.10;94.70;;;;;;5055236;28;20146;-70
2023/08/10 08:33:37;;;;;;;24.83;3.15;;;20.20;94.80;;;;;;5053275;28;20035;-75
2023/08/10 08:36:03;;;;;;;20.17;2.63;;;20.20;95.10;;;;;;5053227;28;20089;-74
2023/08/10 08:38:29;;;;;;;19.30;3.05;;;20.30;95.20;;;;;;5052116;28;20111;-75
2023/08/10 08:40:56;;;;;;;7.40;1.58;;;20.30;95.20;;;;;;5050701;28;20656;-75
2023/08/10 08:43:22;;;;;;;6.05;1.40;;;20.30;95.10;;;;;;5051070;28;20485;-74
2023/08/10 08:45:48;;;;;;;6.22;1.15;;;20.40;95.10;;;;;;5058367;28;20024;-74
2023/08/10 08:48:15;;;;;;;8.25;1.63;;;20.50;94.50;;;;;;5068787;28;20021;-76
2023/08/10 08:50:42;;;;;;;4.68;1.00;;;20.50;94.60;;;;;;5073399;28;20362;-74
2023/08/10 08:53:08;;;;;;;4.00;0.98;;;20.60;94.50;;;;;;5057537;28;20017;-74
2023/08/10 08:55:35;;;;;;;3.65;0.93;;;20.60;94.80;;;;;;5054314;28;20033;-74
2023/08/10 08:58:01;;;;;;;4.20;1.20;;;20.60;94.80;;;;;;5060092;28;20035;-74
2023/08/10 09:00:28;;;;;;;3.95;1.00;;;20.70;94.80;;;;;;5059005;28;20096;-74
2023/08/10 09:02:54;;;;;;;1.45;0.90;;;20.60;94.90;;;;;;5049524;28;20033;-74
2023/08/10 09:05:19;;;;;;;1.55;0.75;;;20.70;94.90;;;;;;5053364;28;20504;-74
2023/08/10 09:07:45;;;;;;;2.83;0.90;;;20.70;94.70;;;;;;5050371;28;20021;-75
2023/08/10 09:10:11;;;;;;;2.10;0.93;;;20.70;94.80;;;;;;5047363;28;20074;-74
2023/08/10 09:12:39;;;;;;;3.42;1.20;;;20.80;95.00;;;;;;5052491;28;20375;-71
2023/08/10 09:15:06;;;;;;;2.67;1.10;;;20.80;95.20;;;;;;5052912;28;20466;-71
2023/08/10 09:17:34;;;;;;;3.90;1.05;;;20.80;95.20;;;;;;5052648;28;20478;-74
2023/08/10 09:20:00;;;;;;;2.22;0.90;;;20.90;95.30;;;;;;5051681;28;20051;-72
2023/08/10 09:22:37;;;;;;;4.40;0.75;;;20.90;95.00;;;;;;5057627;28;20033;-72
2023/08/10 09:25:07;;;;;;;3.40;0.93;;;21.00;95.00;;;;;;5052494;28;20033;-71
2023/08/10 09:27:33;;;;;;;5.03;1.25;;;21.00;95.10;;;;;;5053744;28;20083;-71
2023/08/10 09:30:01;;;;;;;5.60;1.20;;;21.00;95.00;;;;;;5052473;28;20462;-72
2023/08/10 09:32:27;;;;;;;2.83;0.80;;;21.00;94.90;;;;;;5048933;28;20025;-75
2023/08/10 09:34:53;;;;;;;4.85;1.48;;;21.10;94.90;;;;;;5048988;28;20032;-71
2023/08/10 09:37:19;;;;;;;1.90;0.90;;;21.10;94.80;;;;;;5039125;28;20037;-72
2023/08/10 09:39:46;;;;;;;2.72;1.00;;;21.10;94.50;;;;;;5051792;28;20025;-72
2023/08/10 09:42:12;;;;;;;2.92;1.17;;;21.20;94.50;;;;;;5052791;28;20025;-71
2023/08/10 09:44:49;;;;;;;2.22;1.05;;;21.20;94.30;;;;;;5049429;28;20043;-71
2023/08/10 09:47:16;;;;;;;3.55;1.10;;;21.20;94.40;;;;;;5050750;28;20033;-71
2023/08/10 09:50:05;;;;;;;2.40;0.82;;;21.20;94.10;;;;;;5051747;28;20477;-71
2023/08/10 09:52:32;;;;;;;2.92;1.00;;;21.30;94.00;;;;;;5047269;28;20087;-71
2023/08/10 09:54:58;;;;;;;2.97;0.90;;;21.30;94.10;;;;;;5051944;28;20020;-71
2023/08/10 09:57:25;;;;;;;4.70;1.10;;;21.30;94.10;;;;;;5051868;28;20041;-71
2023/08/10 09:59:51;;;;;;;2.95;1.20;;;21.30;94.20;;;;;;5051098;28;20072;-73
2023/08/10 10:02:20;;;;;;;3.50;1.35;;;21.40;93.80;;;;;;5061885;28;20386;-71
2023/08/10 10:04:46;;;;;;;2.55;1.20;;;21.40;93.70;;;;;;5053980;28;20374;-71
2023/08/10 10:07:12;;;;;;;3.60;0.98;;;21.50;93.30;;;;;;5048702;28;20421;-71
2023/08/10 10:09:39;;;;;;;2.90;1.00;;;21.50;93.40;;;;;;5050164;28;20025;-71
2023/08/10 10:12:10;;;;;;;1.90;1.10;;;21.60;93.20;;;;;;5048962;28;20071;-71
2023/08/10 10:14:42;;;;;;;2.25;1.00;;;21.50;93.30;;;;;;5050365;28;20103;-70
2023/08/10 10:17:11;;;;;;;2.70;1.20;;;21.60;93.30;;;;;;5048850;28;20032;-70
2023/08/10 10:19:41;;;;;;;3.70;1.15;;;21.60;93.20;;;;;;5051887;28;20082;-70
2023/08/10 10:22:07;;;;;;;3.15;0.95;;;21.70;92.60;;;;;;5050475;28;20040;-71
2023/08/10 10:24:34;;;;;;;2.75;0.90;;;21.70;92.70;;;;;;5049732;28;20021;-71
2023/08/10 10:27:04;;;;;;;2.83;1.02;;;21.70;93.50;;;;;;5048194;28;20126;-71
2023/08/10 10:29:48;;;;;;;6.32;1.35;;;21.70;93.60;;;;;;5049648;28;20531;-70
2023/08/10 10:32:16;;;;;;;2.78;1.08;;;21.70;93.90;;;;;;5049849;28;20060;-70
2023/08/10 10:34:42;;;;;;;3.00;1.02;;;21.70;93.80;;;;;;5047627;28;20025;-70
2023/08/10 10:37:14;;;;;;;4.53;1.23;;;21.70;94.10;;;;;;5039731;28;20107;-70
2023/08/10 10:39:41;;;;;;;3.83;1.02;;;21.70;94.20;;;;;;5047380;28;20032;-70
2023/08/10 10:42:10;;;;;;;4.97;1.15;;;21.70;93.70;;;;;;5047447;28;20098;-70
2023/08/10 10:45:14;;;;;;;3.95;1.08;;;21.70;94.20;;;;;;5046012;28;20154;-75
2023/08/10 10:47:41;;;;;;;1.80;1.00;;;21.70;94.30;;;;;;5044327;28;20178;-71
2023/08/10 10:50:18;;;;;;;4.13;1.45;;;21.70;94.40;;;;;;5050357;28;20037;-75
2023/08/10 10:52:54;;;;;;;1.80;0.80;;;21.80;94.40;;;;;;5049813;28;20032;-69
2023/08/10 10:55:43;;;;;;;4.18;1.10;;;21.80;94.10;;;;;;5049667;28;20040;-69
2023/08/10 10:58:14;;;;;;;3.65;1.02;;;21.70;94.50;;;;;;5045592;28;20474;-70
2023/08/10 11:00:41;;;;;;;3.47;0.93;;;21.80;93.30;;;;;;5042070;28;20102;-72
2023/08/10 11:03:09;;;;;;;3.40;1.02;;;21.90;93.50;;;;;;5038839;28;20478;-70
2023/08/10 11:05:36;;;;;;;3.85;1.17;;;21.80;94.10;;;;;;5042600;28;20025;-70
2023/08/10 11:08:06;;;;;;;2.28;1.00;;;21.90;92.90;;;;;;5042032;28;20028;-71
2023/08/10 11:10:37;;;;;;;2.70;1.15;;;22.00;92.60;;;;;;5046263;28;20014;-74
2023/08/10 11:13:05;;;;;;;3.53;1.20;;;22.00;92.80;;;;;;5050299;28;20017;-71
2023/08/10 11:15:30;;;;;;;4.75;1.23;;;21.90;93.70;;;;;;5049326;28;20348;-71
2023/08/10 11:17:57;;;;;;;3.03;0.85;;;21.90;93.80;;;;;;5050758;28;20032;-71
2023/08/10 11:20:23;;;;;;;2.55;0.93;;;21.90;93.70;;;;;;5050538;28;20021;-72
2023/08/10 11:22:50;;;;;;;1.90;1.02;;;21.90;93.50;;;;;;5046789;28;20025;-71
2023/08/10 11:25:18;;;;;;;4.10;0.80;;;21.90;92.90;;;;;;5050101;28;20017;-70
2023/08/10 11:27:48;;;;;;;7.85;1.25;;;22.00;92.50;;;;;;5048763;28;20107;-71
2023/08/10 11:30:18;;;;;;;2.95;1.20;;;22.00;93.50;;;;;;5048136;28;20071;-69
2023/08/10 11:32:46;;;;;;;2.00;0.82;;;22.00;93.60;;;;;;5045908;28;20019;-70
2023/08/10 11:35:13;;;;;;;6.60;0.90;;;22.10;92.30;;;;;;5045437;28;20033;-69
2023/08/10 11:37:41;;;;;;;2.67;0.75;;;22.10;93.00;;;;;;5046684;28;20033;-70
2023/08/10 11:40:13;;;;;;;6.93;0.98;;;22.10;92.70;;;;;;5048679;28;20465;-69
2023/08/10 11:42:43;;;;;;;2.85;1.10;;;22.00;93.30;;;;;;5041778;28;20033;-70
2023/08/10 11:45:17;;;;;;;3.42;1.10;;;22.00;93.50;;;;;;5043851;28;20256;-68
2023/08/10 11:47:45;;;;;;;5.88;1.02;;;22.00;93.60;;;;;;5048741;28;20096;-68
2023/08/10 11:50:14;;;;;;;2.67;1.00;;;22.10;93.70;;;;;;5050789;28;20021;-68
2023/08/10 11:52:40;;;;;;;3.95;1.20;;;22.10;93.30;;;;;;5040067;28;20022;-69
2023/08/10 11:55:13;;;;;;;3.60;1.15;;;22.10;92.90;;;;;;5043194;28;20046;-69
2023/08/10 11:57:44;;;;;;;3.75;1.08;;;22.10;93.30;;;;;;5039513;28;20042;-72
2023/08/10 12:00:25;;;;;;;4.32;1.10;;;22.10;93.70;;;;;;5040713;28;20151;-69
2023/08/10 12:03:06;;;;;;;4.15;1.10;;;22.10;93.90;;;;;;5047289;28;20436;-70
2023/08/10 12:05:34;;;;;;;4.90;1.33;;;22.10;94.00;;;;;;5041747;28;20033;-69
2023/08/10 12:08:02;;;;;;;4.38;1.02;;;22.10;93.70;;;;;;5044949;28;20017;-69
2023/08/10 12:10:34;;;;;;;3.50;1.00;;;22.10;93.50;;;;;;5046093;28;20551;-70
2023/08/10 12:13:05;;;;;;;3.25;1.10;;;22.10;93.70;;;;;;5047153;28;20402;-69
2023/08/10 12:15:35;;;;;;;3.90;0.95;;;22.20;93.80;;;;;;5051028;28;20569;-69
2023/08/10 12:18:01;;;;;;;4.75;1.20;;;22.20;93.90;;;;;;5052033;28;20036;-69
2023/08/10 12:20:27;;;;;;;5.30;1.23;;;22.20;94.00;;;;;;5053322;28;20600;-69
2023/08/10 12:22:53;;;;;;;4.53;1.00;;;22.20;94.00;;;;;;5051963;28;20087;-70
2023/08/10 12:25:20;;;;;;;8.10;1.50;;;22.20;94.30;;;;;;5051803;28;20091;-69
2023/08/10 12:27:45;;;;;;;10.52;1.85;;;22.20;94.40;;;;;;5058502;28;20025;-69
2023/08/10 12:30:11;;;;;;;4.10;1.30;;;22.20;94.50;;;;;;5052794;28;20143;-71
2023/08/10 12:32:37;;;;;;;5.15;1.35;;;22.20;94.10;;;;;;5054591;28;20033;-69
2023/08/10 12:35:03;;;;;;;7.00;1.42;;;22.30;94.30;;;;;;5051281;28;20021;-69
2023/08/10 12:37:29;;;;;;;4.28;1.10;;;22.30;94.50;;;;;;5051861;28;20033;-69
2023/08/10 12:39:56;;;;;;;12.00;1.35;;;22.30;94.70;;;;;;5052555;28;20021;-70
2023/08/10 12:42:23;;;;;;;4.72;1.20;;;22.30;94.70;;;;;;5052191;28;20029;-72
2023/08/10 12:44:49;;;;;;;3.10;0.95;;;22.30;94.70;;;;;;5053630;28;20045;-75